sensor_id;sensor_type;location;lat;lon;timestamp;temperature;humidity
75961;SHT30;64644;48.914;2.254;2023-08-06T00:01:48;16.92;76.82
75961;SHT30;64644;48.914;2.254;2023-08-06T00:04:13;16.90;77.02
75961;SHT30;64644;48.914;2.254;2023-08-06T00:06:38;16.90;77.01
75961;SHT30;64644;48.914;2.254;2023-08-06T00:09:04;16.92;77.00
75961;SHT30;64644;48.914;2.254;2023-08-06T00:11:29;16.92;77.08
75961;SHT30;64644;48.914;2.254;2023-08-06T00:13:54;16.93;77.16
75961;SHT30;64644;48.914;2.254;2023-08-06T00:16:20;16.93;76.96
75961;SHT30;64644;48.914;2.254;2023-08-06T00:18:45;16.93;76.93
75961;SHT30;64644;48.914;2.254;2023-08-06T00:21:11;16.94;76.95
75961;SHT30;64644;48.914;2.254;2023-08-06T00:23:37;16.90;76.82
75961;SHT30;64644;48.914;2.254;2023-08-06T00:26:03;16.93;76.72
75961;SHT30;64644;48.914;2.254;2023-08-06T00:28:28;16.90;76.65
75961;SHT30;64644;48.914;2.254;2023-08-06T00:30:54;16.87;76.51
75961;SHT30;64644;48.914;2.254;2023-08-06T00:33:20;16.86;76.40
75961;SHT30;64644;48.914;2.254;2023-08-06T00:35:46;16.84;76.31
75961;SHT30;64644;48.914;2.254;2023-08-06T00:38:12;16.84;76.27
75961;SHT30;64644;48.914;2.254;2023-08-06T00:40:37;16.83;76.40
75961;SHT30;64644;48.914;2.254;2023-08-06T00:43:02;16.82;76.35
75961;SHT30;64644;48.914;2.254;2023-08-06T00:45:28;16.83;76.38
75961;SHT30;64644;48.914;2.254;2023-08-06T00:47:55;16.84;76.38
75961;SHT30;64644;48.914;2.254;2023-08-06T00:50:20;16.84;76.17
75961;SHT30;64644;48.914;2.254;2023-08-06T00:52:50;16.83;76.18
75961;SHT30;64644;48.914;2.254;2023-08-06T00:55:16;16.82;76.37
75961;SHT30;64644;48.914;2.254;2023-08-06T00:57:42;16.83;76.31
75961;SHT30;64644;48.914;2.254;2023-08-06T01:00:08;16.79;76.38
75961;SHT30;64644;48.914;2.254;2023-08-06T01:02:33;16.79;76.47
75961;SHT30;64644;48.914;2.254;2023-08-06T01:04:59;16.77;76.39
75961;SHT30;64644;48.914;2.254;2023-08-06T01:10:24;16.71;76.26
75961;SHT30;64644;48.914;2.254;2023-08-06T01:13:13;16.69;76.30
75961;SHT30;64644;48.914;2.254;2023-08-06T01:15:46;16.64;76.33
75961;SHT30;64644;48.914;2.254;2023-08-06T01:18:14;16.61;76.29
75961;SHT30;64644;48.914;2.254;2023-08-06T01:20:40;16.61;76.37
75961;SHT30;64644;48.914;2.254;2023-08-06T01:23:05;16.62;76.49
75961;SHT30;64644;48.914;2.254;2023-08-06T01:25:37;16.62;76.44
75961;SHT30;64644;48.914;2.254;2023-08-06T01:28:12;16.64;76.31
75961;SHT30;64644;48.914;2.254;2023-08-06T01:30:41;16.61;76.23
75961;SHT30;64644;48.914;2.254;2023-08-06T01:33:10;16.61;76.21
75961;SHT30;64644;48.914;2.254;2023-08-06T01:35:38;16.61;76.11
75961;SHT30;64644;48.914;2.254;2023-08-06T01:38:04;16.59;76.08
75961;SHT30;64644;48.914;2.254;2023-08-06T01:40:29;16.59;75.90
75961;SHT30;64644;48.914;2.254;2023-08-06T01:42:55;16.59;75.72
75961;SHT30;64644;48.914;2.254;2023-08-06T01:45:20;16.58;75.73
75961;SHT30;64644;48.914;2.254;2023-08-06T01:47:45;16.59;75.70
75961;SHT30;64644;48.914;2.254;2023-08-06T01:50:11;16.58;75.68
75961;SHT30;64644;48.914;2.254;2023-08-06T01:52:36;16.58;75.56
75961;SHT30;64644;48.914;2.254;2023-08-06T01:55:01;16.56;75.44
75961;SHT30;64644;48.914;2.254;2023-08-06T01:57:27;16.56;75.40
75961;SHT30;64644;48.914;2.254;2023-08-06T01:59:52;16.59;75.37
75961;SHT30;64644;48.914;2.254;2023-08-06T02:02:18;16.56;75.24
75961;SHT30;64644;48.914;2.254;2023-08-06T02:04:43;16.58;75.21
75961;SHT30;64644;48.914;2.254;2023-08-06T02:07:08;16.56;75.10
75961;SHT30;64644;48.914;2.254;2023-08-06T02:09:34;16.59;75.11
75961;SHT30;64644;48.914;2.254;2023-08-06T02:12:00;16.58;75.05
75961;SHT30;64644;48.914;2.254;2023-08-06T02:14:26;16.61;75.01
75961;SHT30;64644;48.914;2.254;2023-08-06T02:16:51;16.64;74.91
75961;SHT30;64644;48.914;2.254;2023-08-06T02:19:16;16.61;74.84
75961;SHT30;64644;48.914;2.254;2023-08-06T02:21:42;16.61;74.73
75961;SHT30;64644;48.914;2.254;2023-08-06T02:24:07;16.62;74.75
75961;SHT30;64644;48.914;2.254;2023-08-06T02:26:32;16.64;74.73
75961;SHT30;64644;48.914;2.254;2023-08-06T02:28:59;16.62;74.71
75961;SHT30;64644;48.914;2.254;2023-08-06T02:31:24;16.58;74.72
75961;SHT30;64644;48.914;2.254;2023-08-06T02:33:50;16.56;74.78
75961;SHT30;64644;48.914;2.254;2023-08-06T02:36:15;16.58;74.83
75961;SHT30;64644;48.914;2.254;2023-08-06T02:38:40;16.56;74.86
75961;SHT30;64644;48.914;2.254;2023-08-06T02:41:06;16.58;74.80
75961;SHT30;64644;48.914;2.254;2023-08-06T02:43:31;16.59;74.70
75961;SHT30;64644;48.914;2.254;2023-08-06T02:45:57;16.55;74.63
75961;SHT30;64644;48.914;2.254;2023-08-06T02:48:23;16.56;74.73
75961;SHT30;64644;48.914;2.254;2023-08-06T02:50:48;16.56;74.64
75961;SHT30;64644;48.914;2.254;2023-08-06T02:53:14;16.55;74.55
75961;SHT30;64644;48.914;2.254;2023-08-06T02:55:45;16.58;74.53
75961;SHT30;64644;48.914;2.254;2023-08-06T02:58:11;16.56;74.46
75961;SHT30;64644;48.914;2.254;2023-08-06T03:00:37;16.59;74.54
75961;SHT30;64644;48.914;2.254;2023-08-06T03:03:02;16.62;74.50
75961;SHT30;64644;48.914;2.254;2023-08-06T03:05:27;16.62;74.42
75961;SHT30;64644;48.914;2.254;2023-08-06T03:07:53;16.66;74.38
75961;SHT30;64644;48.914;2.254;2023-08-06T03:10:18;16.62;74.28
75961;SHT30;64644;48.914;2.254;2023-08-06T03:12:45;16.61;74.23
75961;SHT30;64644;48.914;2.254;2023-08-06T03:15:10;16.56;74.18
75961;SHT30;64644;48.914;2.254;2023-08-06T03:17:35;16.55;74.17
75961;SHT30;64644;48.914;2.254;2023-08-06T03:20:01;16.55;74.18
75961;SHT30;64644;48.914;2.254;2023-08-06T03:22:26;16.51;74.11
75961;SHT30;64644;48.914;2.254;2023-08-06T03:24:51;16.48;74.19
75961;SHT30;64644;48.914;2.254;2023-08-06T03:27:17;16.49;74.20
75961;SHT30;64644;48.914;2.254;2023-08-06T03:29:42;16.48;74.30
75961;SHT30;64644;48.914;2.254;2023-08-06T03:32:07;16.47;74.28
75961;SHT30;64644;48.914;2.254;2023-08-06T03:34:33;16.47;74.31
75961;SHT30;64644;48.914;2.254;2023-08-06T03:36:58;16.47;74.30
75961;SHT30;64644;48.914;2.254;2023-08-06T03:39:23;16.42;74.34
75961;SHT30;64644;48.914;2.254;2023-08-06T03:41:49;16.42;74.33
75961;SHT30;64644;48.914;2.254;2023-08-06T03:44:14;16.41;74.44
75961;SHT30;64644;48.914;2.254;2023-08-06T03:46:39;16.41;74.44
75961;SHT30;64644;48.914;2.254;2023-08-06T03:49:05;16.41;74.41
75961;SHT30;64644;48.914;2.254;2023-08-06T03:51:30;16.40;74.43
75961;SHT30;64644;48.914;2.254;2023-08-06T03:53:55;16.42;74.46
75961;SHT30;64644;48.914;2.254;2023-08-06T03:56:21;16.47;74.38
75961;SHT30;64644;48.914;2.254;2023-08-06T03:58:46;16.47;74.35
75961;SHT30;64644;48.914;2.254;2023-08-06T04:01:11;16.45;74.27
75961;SHT30;64644;48.914;2.254;2023-08-06T04:03:37;16.47;74.15
75961;SHT30;64644;48.914;2.254;2023-08-06T04:06:03;16.45;74.06
75961;SHT30;64644;48.914;2.254;2023-08-06T04:08:28;16.47;73.94
75961;SHT30;64644;48.914;2.254;2023-08-06T04:10:54;16.45;73.88
75961;SHT30;64644;48.914;2.254;2023-08-06T04:13:19;16.48;73.89
75961;SHT30;64644;48.914;2.254;2023-08-06T04:15:45;16.51;73.82
75961;SHT30;64644;48.914;2.254;2023-08-06T04:18:11;16.49;73.74
75961;SHT30;64644;48.914;2.254;2023-08-06T04:20:46;16.51;73.65
75961;SHT30;64644;48.914;2.254;2023-08-06T04:23:12;16.51;73.56
75961;SHT30;64644;48.914;2.254;2023-08-06T04:25:38;16.51;73.52
75961;SHT30;64644;48.914;2.254;2023-08-06T04:28:03;16.51;73.51
75961;SHT30;64644;48.914;2.254;2023-08-06T04:30:29;16.48;73.38
75961;SHT30;64644;48.914;2.254;2023-08-06T04:32:56;16.48;73.38
75961;SHT30;64644;48.914;2.254;2023-08-06T04:35:21;16.47;73.44
75961;SHT30;64644;48.914;2.254;2023-08-06T04:37:47;16.45;73.48
75961;SHT30;64644;48.914;2.254;2023-08-06T04:40:12;16.45;73.44
75961;SHT30;64644;48.914;2.254;2023-08-06T04:42:38;16.47;73.39
75961;SHT30;64644;48.914;2.254;2023-08-06T04:45:04;16.47;73.42
75961;SHT30;64644;48.914;2.254;2023-08-06T04:47:29;16.51;73.45
75961;SHT30;64644;48.914;2.254;2023-08-06T04:49:55;16.48;73.41
75961;SHT30;64644;48.914;2.254;2023-08-06T04:52:20;16.54;73.38
75961;SHT30;64644;48.914;2.254;2023-08-06T04:54:45;16.55;73.34
75961;SHT30;64644;48.914;2.254;2023-08-06T04:57:11;16.54;73.28
75961;SHT30;64644;48.914;2.254;2023-08-06T04:59:36;16.51;73.23
75961;SHT30;64644;48.914;2.254;2023-08-06T05:02:02;16.56;73.21
75961;SHT30;64644;48.914;2.254;2023-08-06T05:04:27;16.52;73.24
75961;SHT30;64644;48.914;2.254;2023-08-06T05:06:52;16.52;73.25
75961;SHT30;64644;48.914;2.254;2023-08-06T05:09:18;16.52;73.28
75961;SHT30;64644;48.914;2.254;2023-08-06T05:11:43;16.54;73.31
75961;SHT30;64644;48.914;2.254;2023-08-06T05:14:09;16.56;73.28
75961;SHT30;64644;48.914;2.254;2023-08-06T05:16:34;16.54;73.25
75961;SHT30;64644;48.914;2.254;2023-08-06T05:18:59;16.56;73.22
75961;SHT30;64644;48.914;2.254;2023-08-06T05:21:25;16.55;73.17
75961;SHT30;64644;48.914;2.254;2023-08-06T05:23:50;16.54;73.25
75961;SHT30;64644;48.914;2.254;2023-08-06T05:26:15;16.49;73.32
75961;SHT30;64644;48.914;2.254;2023-08-06T05:28:44;16.51;73.52
75961;SHT30;64644;48.914;2.254;2023-08-06T05:31:10;16.47;73.61
75961;SHT30;64644;48.914;2.254;2023-08-06T05:33:35;16.47;73.62
75961;SHT30;64644;48.914;2.254;2023-08-06T05:36:00;16.47;73.65
75961;SHT30;64644;48.914;2.254;2023-08-06T05:38:26;16.44;73.60
75961;SHT30;64644;48.914;2.254;2023-08-06T05:40:51;16.44;73.64
75961;SHT30;64644;48.914;2.254;2023-08-06T05:43:17;16.44;73.69
75961;SHT30;64644;48.914;2.254;2023-08-06T05:45:45;16.44;73.83
75961;SHT30;64644;48.914;2.254;2023-08-06T05:48:14;16.47;73.95
75961;SHT30;64644;48.914;2.254;2023-08-06T05:50:39;16.48;73.88
75961;SHT30;64644;48.914;2.254;2023-08-06T05:53:04;16.48;73.91
75961;SHT30;64644;48.914;2.254;2023-08-06T05:55:30;16.48;73.80
75961;SHT30;64644;48.914;2.254;2023-08-06T05:57:57;16.48;73.83
75961;SHT30;64644;48.914;2.254;2023-08-06T06:00:22;16.48;73.80
75961;SHT30;64644;48.914;2.254;2023-08-06T06:02:48;16.47;73.79
75961;SHT30;64644;48.914;2.254;2023-08-06T06:05:13;16.47;73.82
75961;SHT30;64644;48.914;2.254;2023-08-06T06:07:38;16.45;73.88
75961;SHT30;64644;48.914;2.254;2023-08-06T06:10:04;16.49;73.97
75961;SHT30;64644;48.914;2.254;2023-08-06T06:12:30;16.55;73.99
75961;SHT30;64644;48.914;2.254;2023-08-06T06:14:55;16.59;73.93
75961;SHT30;64644;48.914;2.254;2023-08-06T06:17:21;16.56;73.70
75961;SHT30;64644;48.914;2.254;2023-08-06T06:19:47;16.59;73.60
75961;SHT30;64644;48.914;2.254;2023-08-06T06:22:12;16.59;73.44
75961;SHT30;64644;48.914;2.254;2023-08-06T06:24:38;16.62;73.36
75961;SHT30;64644;48.914;2.254;2023-08-06T06:27:03;16.65;73.12
75961;SHT30;64644;48.914;2.254;2023-08-06T06:29:29;16.68;73.12
75961;SHT30;64644;48.914;2.254;2023-08-06T06:31:54;16.71;73.08
75961;SHT30;64644;48.914;2.254;2023-08-06T06:34:20;16.75;72.96
75961;SHT30;64644;48.914;2.254;2023-08-06T06:36:45;16.73;72.84
75961;SHT30;64644;48.914;2.254;2023-08-06T06:39:11;16.75;72.79
75961;SHT30;64644;48.914;2.254;2023-08-06T06:41:36;16.72;72.74
75961;SHT30;64644;48.914;2.254;2023-08-06T06:44:01;16.76;72.72
75961;SHT30;64644;48.914;2.254;2023-08-06T06:46:27;16.77;72.67
75961;SHT30;64644;48.914;2.254;2023-08-06T06:48:52;16.84;72.68
75961;SHT30;64644;48.914;2.254;2023-08-06T06:51:17;16.90;72.52
75961;SHT30;64644;48.914;2.254;2023-08-06T06:53:43;16.93;72.38
75961;SHT30;64644;48.914;2.254;2023-08-06T06:56:08;17.00;72.17
75961;SHT30;64644;48.914;2.254;2023-08-06T06:58:33;17.04;72.00
75961;SHT30;64644;48.914;2.254;2023-08-06T07:00:59;17.06;71.73
75961;SHT30;64644;48.914;2.254;2023-08-06T07:03:24;17.09;71.55
75961;SHT30;64644;48.914;2.254;2023-08-06T07:05:50;17.06;71.13
75961;SHT30;64644;48.914;2.254;2023-08-06T07:08:15;17.10;70.85
75961;SHT30;64644;48.914;2.254;2023-08-06T07:10:41;17.13;70.69
75961;SHT30;64644;48.914;2.254;2023-08-06T07:13:07;17.20;70.38
75961;SHT30;64644;48.914;2.254;2023-08-06T07:15:33;17.18;70.29
75961;SHT30;64644;48.914;2.254;2023-08-06T07:17:58;17.21;70.07
75961;SHT30;64644;48.914;2.254;2023-08-06T07:20:23;17.24;69.72
75961;SHT30;64644;48.914;2.254;2023-08-06T07:22:49;17.28;69.56
75961;SHT30;64644;48.914;2.254;2023-08-06T07:25:16;17.32;69.41
75961;SHT30;64644;48.914;2.254;2023-08-06T07:27:41;17.37;69.38
75961;SHT30;64644;48.914;2.254;2023-08-06T07:30:07;17.41;68.84
75961;SHT30;64644;48.914;2.254;2023-08-06T07:32:32;17.42;68.72
75961;SHT30;64644;48.914;2.254;2023-08-06T07:34:58;17.48;68.66
75961;SHT30;64644;48.914;2.254;2023-08-06T07:37:28;17.52;68.12
75961;SHT30;64644;48.914;2.254;2023-08-06T07:39:54;17.55;67.90
75961;SHT30;64644;48.914;2.254;2023-08-06T07:42:20;17.54;67.70
75961;SHT30;64644;48.914;2.254;2023-08-06T07:44:56;17.62;67.70
75961;SHT30;64644;48.914;2.254;2023-08-06T07:47:22;17.61;67.83
75961;SHT30;64644;48.914;2.254;2023-08-06T07:49:47;17.62;67.42
75961;SHT30;64644;48.914;2.254;2023-08-06T07:52:13;17.62;67.27
75961;SHT30;64644;48.914;2.254;2023-08-06T07:54:38;17.69;66.96
75961;SHT30;64644;48.914;2.254;2023-08-06T07:57:04;17.75;66.98
75961;SHT30;64644;48.914;2.254;2023-08-06T07:59:30;17.82;66.75
75961;SHT30;64644;48.914;2.254;2023-08-06T08:01:55;17.97;66.63
75961;SHT30;64644;48.914;2.254;2023-08-06T08:04:21;18.10;66.42
75961;SHT30;64644;48.914;2.254;2023-08-06T08:06:46;18.18;66.51
75961;SHT30;64644;48.914;2.254;2023-08-06T08:09:12;18.10;66.33
75961;SHT30;64644;48.914;2.254;2023-08-06T08:11:39;18.04;66.25
75961;SHT30;64644;48.914;2.254;2023-08-06T08:14:04;18.08;66.13
75961;SHT30;64644;48.914;2.254;2023-08-06T08:16:29;18.13;65.66
75961;SHT30;64644;48.914;2.254;2023-08-06T08:18:55;18.16;65.49
75961;SHT30;64644;48.914;2.254;2023-08-06T08:21:20;18.07;65.98
75961;SHT30;64644;48.914;2.254;2023-08-06T08:23:45;18.07;65.24
75961;SHT30;64644;48.914;2.254;2023-08-06T08:26:11;18.13;65.27
75961;SHT30;64644;48.914;2.254;2023-08-06T08:28:36;18.17;65.60
75961;SHT30;64644;48.914;2.254;2023-08-06T08:31:01;18.20;65.11
75961;SHT30;64644;48.914;2.254;2023-08-06T08:33:27;18.30;64.62
75961;SHT30;64644;48.914;2.254;2023-08-06T08:35:52;18.42;64.34
75961;SHT30;64644;48.914;2.254;2023-08-06T08:38:17;18.53;64.15
75961;SHT30;64644;48.914;2.254;2023-08-06T08:40:46;18.68;63.98
75961;SHT30;64644;48.914;2.254;2023-08-06T08:43:15;18.70;63.84
75961;SHT30;64644;48.914;2.254;2023-08-06T08:45:42;18.68;63.56
75961;SHT30;64644;48.914;2.254;2023-08-06T08:48:10;18.59;63.29
75961;SHT30;64644;48.914;2.254;2023-08-06T08:50:36;18.58;63.03
75961;SHT30;64644;48.914;2.254;2023-08-06T08:53:02;18.51;62.67
75961;SHT30;64644;48.914;2.254;2023-08-06T08:55:28;18.53;62.63
75961;SHT30;64644;48.914;2.254;2023-08-06T08:57:53;18.59;62.44
75961;SHT30;64644;48.914;2.254;2023-08-06T09:00:19;18.72;62.46
75961;SHT30;64644;48.914;2.254;2023-08-06T09:02:45;18.86;62.35
75961;SHT30;64644;48.914;2.254;2023-08-06T09:05:12;19.03;61.98
75961;SHT30;64644;48.914;2.254;2023-08-06T09:07:45;19.02;61.75
75961;SHT30;64644;48.914;2.254;2023-08-06T09:10:14;19.10;61.39
75961;SHT30;64644;48.914;2.254;2023-08-06T09:12:43;19.07;60.89
75961;SHT30;64644;48.914;2.254;2023-08-06T09:15:10;19.11;60.58
75961;SHT30;64644;48.914;2.254;2023-08-06T09:17:36;19.18;60.33
75961;SHT30;64644;48.914;2.254;2023-08-06T09:20:14;19.31;60.15
75961;SHT30;64644;48.914;2.254;2023-08-06T09:22:40;19.38;59.96
75961;SHT30;64644;48.914;2.254;2023-08-06T09:25:07;19.55;59.87
75961;SHT30;64644;48.914;2.254;2023-08-06T09:27:39;19.61;59.84
75961;SHT30;64644;48.914;2.254;2023-08-06T09:30:08;19.57;59.80
75961;SHT30;64644;48.914;2.254;2023-08-06T09:32:48;19.52;59.56
75961;SHT30;64644;48.914;2.254;2023-08-06T09:35:17;19.47;59.63
75961;SHT30;64644;48.914;2.254;2023-08-06T09:37:47;19.52;59.68
75961;SHT30;64644;48.914;2.254;2023-08-06T09:40:30;19.55;59.27
75961;SHT30;64644;48.914;2.254;2023-08-06T09:42:56;19.63;58.88
75961;SHT30;64644;48.914;2.254;2023-08-06T09:45:22;19.76;58.86
75961;SHT30;64644;48.914;2.254;2023-08-06T09:47:49;19.80;58.62
75961;SHT30;64644;48.914;2.254;2023-08-06T09:50:18;19.77;58.48
75961;SHT30;64644;48.914;2.254;2023-08-06T09:52:45;19.83;58.24
75961;SHT30;64644;48.914;2.254;2023-08-06T09:55:12;20.00;57.84
75961;SHT30;64644;48.914;2.254;2023-08-06T09:57:38;20.16;57.76
75961;SHT30;64644;48.914;2.254;2023-08-06T10:00:04;20.17;57.69
75961;SHT30;64644;48.914;2.254;2023-08-06T10:02:32;20.20;57.69
75961;SHT30;64644;48.914;2.254;2023-08-06T10:04:58;20.18;57.78
75961;SHT30;64644;48.914;2.254;2023-08-06T10:07:24;20.09;57.39
75961;SHT30;64644;48.914;2.254;2023-08-06T10:09:49;20.14;57.42
75961;SHT30;64644;48.914;2.254;2023-08-06T10:12:15;20.25;56.97
75961;SHT30;64644;48.914;2.254;2023-08-06T10:14:44;20.44;56.86
75961;SHT30;64644;48.914;2.254;2023-08-06T10:17:11;20.47;56.72
75961;SHT30;64644;48.914;2.254;2023-08-06T10:19:37;20.44;56.58
75961;SHT30;64644;48.914;2.254;2023-08-06T10:22:09;20.51;56.64
75961;SHT30;64644;48.914;2.254;2023-08-06T10:24:57;20.56;56.21
75961;SHT30;64644;48.914;2.254;2023-08-06T10:27:39;20.69;56.32
75961;SHT30;64644;48.914;2.254;2023-08-06T10:30:30;20.89;56.43
75961;SHT30;64644;48.914;2.254;2023-08-06T10:33:03;21.04;56.08
75961;SHT30;64644;48.914;2.254;2023-08-06T10:40:48;20.99;55.42
75961;SHT30;64644;48.914;2.254;2023-08-06T10:43:33;20.96;55.41
75961;SHT30;64644;48.914;2.254;2023-08-06T10:46:00;21.04;55.28
75961;SHT30;64644;48.914;2.254;2023-08-06T10:48:40;21.20;55.50
75961;SHT30;64644;48.914;2.254;2023-08-06T10:51:13;21.28;55.73
75961;SHT30;64644;48.914;2.254;2023-08-06T10:53:43;21.41;55.63
75961;SHT30;64644;48.914;2.254;2023-08-06T10:56:16;21.37;55.36
75961;SHT30;64644;48.914;2.254;2023-08-06T10:58:43;21.21;55.13
75961;SHT30;64644;48.914;2.254;2023-08-06T11:01:09;21.24;54.80
75961;SHT30;64644;48.914;2.254;2023-08-06T11:03:36;21.39;55.01
75961;SHT30;64644;48.914;2.254;2023-08-06T11:06:01;21.58;54.65
75961;SHT30;64644;48.914;2.254;2023-08-06T11:08:29;21.69;54.15
75961;SHT30;64644;48.914;2.254;2023-08-06T11:10:55;21.69;53.82
75961;SHT30;64644;48.914;2.254;2023-08-06T11:13:21;21.66;53.87
75961;SHT30;64644;48.914;2.254;2023-08-06T11:15:46;21.63;53.70
75961;SHT30;64644;48.914;2.254;2023-08-06T11:18:12;21.53;53.82
75961;SHT30;64644;48.914;2.254;2023-08-06T11:20:38;21.42;53.23
75961;SHT30;64644;48.914;2.254;2023-08-06T11:23:05;21.27;53.12
75961;SHT30;64644;48.914;2.254;2023-08-06T11:25:30;21.18;53.21
75961;SHT30;64644;48.914;2.254;2023-08-06T11:27:55;21.15;53.21
75961;SHT30;64644;48.914;2.254;2023-08-06T11:30:21;21.17;53.33
75961;SHT30;64644;48.914;2.254;2023-08-06T11:32:47;21.14;53.81
75961;SHT30;64644;48.914;2.254;2023-08-06T11:35:14;21.10;53.28
75961;SHT30;64644;48.914;2.254;2023-08-06T11:37:45;21.12;53.73
75961;SHT30;64644;48.914;2.254;2023-08-06T11:40:17;21.17;53.68
75961;SHT30;64644;48.914;2.254;2023-08-06T11:42:43;21.14;53.66
75961;SHT30;64644;48.914;2.254;2023-08-06T11:45:08;21.20;53.81
75961;SHT30;64644;48.914;2.254;2023-08-06T11:47:38;21.31;53.81
75961;SHT30;64644;48.914;2.254;2023-08-06T11:50:03;21.46;53.29
75961;SHT30;64644;48.914;2.254;2023-08-06T11:52:31;21.53;53.35
75961;SHT30;64644;48.914;2.254;2023-08-06T11:57:32;21.39;52.89
75961;SHT30;64644;48.914;2.254;2023-08-06T12:00:08;21.27;52.76
75961;SHT30;64644;48.914;2.254;2023-08-06T12:02:34;21.17;52.50
75961;SHT30;64644;48.914;2.254;2023-08-06T12:05:11;21.08;52.85
75961;SHT30;64644;48.914;2.254;2023-08-06T12:07:41;21.03;52.96
75961;SHT30;64644;48.914;2.254;2023-08-06T12:10:07;20.94;53.38
75961;SHT30;64644;48.914;2.254;2023-08-06T12:12:33;20.94;53.55
75961;SHT30;64644;48.914;2.254;2023-08-06T12:14:59;21.00;53.74
75961;SHT30;64644;48.914;2.254;2023-08-06T12:17:24;21.04;53.58
75961;SHT30;64644;48.914;2.254;2023-08-06T12:19:52;21.07;53.46
75961;SHT30;64644;48.914;2.254;2023-08-06T12:22:17;21.07;53.09
75961;SHT30;64644;48.914;2.254;2023-08-06T12:24:44;21.11;53.14
75961;SHT30;64644;48.914;2.254;2023-08-06T12:27:10;21.17;53.07
75961;SHT30;64644;48.914;2.254;2023-08-06T12:29:43;21.25;52.99
75961;SHT30;64644;48.914;2.254;2023-08-06T12:32:12;21.46;53.20
75961;SHT30;64644;48.914;2.254;2023-08-06T12:34:39;21.62;52.91
75961;SHT30;64644;48.914;2.254;2023-08-06T12:37:05;21.70;52.53
75961;SHT30;64644;48.914;2.254;2023-08-06T12:39:31;21.73;52.32
75961;SHT30;64644;48.914;2.254;2023-08-06T12:41:57;21.80;51.91
75961;SHT30;64644;48.914;2.254;2023-08-06T12:44:24;21.82;51.86
75961;SHT30;64644;48.914;2.254;2023-08-06T12:46:51;21.85;51.99
75961;SHT30;64644;48.914;2.254;2023-08-06T12:49:17;21.86;52.08
75961;SHT30;64644;48.914;2.254;2023-08-06T12:51:43;21.78;51.97
75961;SHT30;64644;48.914;2.254;2023-08-06T12:54:08;21.67;51.96
75961;SHT30;64644;48.914;2.254;2023-08-06T12:56:34;21.62;52.24
75961;SHT30;64644;48.914;2.254;2023-08-06T12:59:00;21.56;52.37
75961;SHT30;64644;48.914;2.254;2023-08-06T13:01:25;21.52;52.12
75961;SHT30;64644;48.914;2.254;2023-08-06T13:03:51;21.63;52.31
75961;SHT30;64644;48.914;2.254;2023-08-06T13:06:16;21.73;52.48
75961;SHT30;64644;48.914;2.254;2023-08-06T13:08:42;21.72;52.37
75961;SHT30;64644;48.914;2.254;2023-08-06T13:11:07;21.72;52.20
75961;SHT30;64644;48.914;2.254;2023-08-06T13:13:32;21.67;52.30
75961;SHT30;64644;48.914;2.254;2023-08-06T13:15:58;21.70;52.49
75961;SHT30;64644;48.914;2.254;2023-08-06T13:18:23;21.72;52.58
75961;SHT30;64644;48.914;2.254;2023-08-06T13:20:48;21.75;52.38
75961;SHT30;64644;48.914;2.254;2023-08-06T13:23:17;21.78;52.45
75961;SHT30;64644;48.914;2.254;2023-08-06T13:25:43;21.85;52.59
75961;SHT30;64644;48.914;2.254;2023-08-06T13:28:08;21.94;52.55
75961;SHT30;64644;48.914;2.254;2023-08-06T13:30:34;22.10;52.39
75961;SHT30;64644;48.914;2.254;2023-08-06T13:33:01;22.21;51.92
75961;SHT30;64644;48.914;2.254;2023-08-06T13:35:26;22.30;51.83
75961;SHT30;64644;48.914;2.254;2023-08-06T13:37:52;22.45;51.74
75961;SHT30;64644;48.914;2.254;2023-08-06T13:40:18;22.56;51.46
75961;SHT30;64644;48.914;2.254;2023-08-06T13:42:43;22.59;51.01
75961;SHT30;64644;48.914;2.254;2023-08-06T13:45:09;22.75;50.75
75961;SHT30;64644;48.914;2.254;2023-08-06T13:47:34;22.92;50.54
75961;SHT30;64644;48.914;2.254;2023-08-06T13:50:00;22.85;50.30
75961;SHT30;64644;48.914;2.254;2023-08-06T13:52:26;22.70;50.08
75961;SHT30;64644;48.914;2.254;2023-08-06T13:54:52;22.56;50.15
75961;SHT30;64644;48.914;2.254;2023-08-06T13:57:17;22.45;50.21
75961;SHT30;64644;48.914;2.254;2023-08-06T13:59:43;22.34;50.32
75961;SHT30;64644;48.914;2.254;2023-08-06T14:02:09;22.25;50.56
75961;SHT30;64644;48.914;2.254;2023-08-06T14:04:34;22.25;50.72
75961;SHT30;64644;48.914;2.254;2023-08-06T14:07:00;22.25;50.79
75961;SHT30;64644;48.914;2.254;2023-08-06T14:09:25;22.28;50.89
75961;SHT30;64644;48.914;2.254;2023-08-06T14:11:50;22.41;51.10
75961;SHT30;64644;48.914;2.254;2023-08-06T14:14:16;22.53;50.82
75961;SHT30;64644;48.914;2.254;2023-08-06T14:16:41;22.66;50.53
75961;SHT30;64644;48.914;2.254;2023-08-06T14:19:06;22.72;50.44
75961;SHT30;64644;48.914;2.254;2023-08-06T14:21:32;22.82;50.29
75961;SHT30;64644;48.914;2.254;2023-08-06T14:23:57;22.93;49.86
75961;SHT30;64644;48.914;2.254;2023-08-06T14:26:23;23.02;49.72
75961;SHT30;64644;48.914;2.254;2023-08-06T14:28:48;22.94;49.64
75961;SHT30;64644;48.914;2.254;2023-08-06T14:31:13;22.76;49.55
75961;SHT30;64644;48.914;2.254;2023-08-06T14:33:39;22.56;49.65
75961;SHT30;64644;48.914;2.254;2023-08-06T14:36:04;22.37;49.60
75961;SHT30;64644;48.914;2.254;2023-08-06T14:38:30;22.22;49.68
75961;SHT30;64644;48.914;2.254;2023-08-06T14:40:55;22.14;49.80
75961;SHT30;64644;48.914;2.254;2023-08-06T14:43:21;22.17;49.98
75961;SHT30;64644;48.914;2.254;2023-08-06T14:45:46;22.34;49.76
75961;SHT30;64644;48.914;2.254;2023-08-06T14:48:12;22.72;49.92
75961;SHT30;64644;48.914;2.254;2023-08-06T14:50:37;23.15;49.88
75961;SHT30;64644;48.914;2.254;2023-08-06T14:53:04;23.32;49.51
75961;SHT30;64644;48.914;2.254;2023-08-06T14:55:31;23.41;49.13
75961;SHT30;64644;48.914;2.254;2023-08-06T14:57:56;23.41;49.13
75961;SHT30;64644;48.914;2.254;2023-08-06T15:00:22;23.41;49.70
75961;SHT30;64644;48.914;2.254;2023-08-06T15:02:47;23.37;49.18
75961;SHT30;64644;48.914;2.254;2023-08-06T15:05:12;23.18;49.22
75961;SHT30;64644;48.914;2.254;2023-08-06T15:07:38;23.03;49.26
75961;SHT30;64644;48.914;2.254;2023-08-06T15:10:05;22.92;49.28
75961;SHT30;64644;48.914;2.254;2023-08-06T15:12:31;22.75;49.36
75961;SHT30;64644;48.914;2.254;2023-08-06T15:14:58;22.59;49.43
75961;SHT30;64644;48.914;2.254;2023-08-06T15:17:23;22.42;49.43
75961;SHT30;64644;48.914;2.254;2023-08-06T15:19:49;22.27;49.45
75961;SHT30;64644;48.914;2.254;2023-08-06T15:22:14;22.11;49.62
75961;SHT30;64644;48.914;2.254;2023-08-06T15:24:40;22.01;49.68
75961;SHT30;64644;48.914;2.254;2023-08-06T15:27:10;21.90;49.65
75961;SHT30;64644;48.914;2.254;2023-08-06T15:29:36;21.89;49.60
75961;SHT30;64644;48.914;2.254;2023-08-06T15:32:02;21.97;49.97
75961;SHT30;64644;48.914;2.254;2023-08-06T15:34:27;22.03;50.22
75961;SHT30;64644;48.914;2.254;2023-08-06T15:36:53;22.13;50.05